sensor_id;sensor_type;location;lat;lon;timestamp;temperature;humidity
59975;DHT22;62136;-35.664;-63.766;2023-12-20T00:01:38;22.30;47.40
59975;DHT22;62136;-35.664;-63.766;2023-12-20T00:04:05;22.30;47.40
59975;DHT22;62136;-35.664;-63.766;2023-12-20T00:06:32;22.30;47.50
59975;DHT22;62136;-35.664;-63.766;2023-12-20T00:08:59;22.30;47.50
59975;DHT22;62136;-35.664;-63.766;2023-12-20T00:11:26;22.30;47.50
59975;DHT22;62136;-35.664;-63.766;2023-12-20T00:13:57;22.20;47.30
59975;DHT22;62136;-35.664;-63.766;2023-12-20T00:16:24;22.30;47.60
59975;DHT22;62136;-35.664;-63.766;2023-12-20T00:18:50;22.20;47.60
59975;DHT22;62136;-35.664;-63.766;2023-12-20T00:21:17;22.30;47.60
59975;DHT22;62136;-35.664;-63.766;2023-12-20T00:23:44;22.30;47.60
59975;DHT22;62136;-35.664;-63.766;2023-12-20T00:26:11;22.20;47.60
59975;DHT22;62136;-35.664;-63.766;2023-12-20T00:28:38;22.20;47.70
59975;DHT22;62136;-35.664;-63.766;2023-12-20T00:31:05;22.20;47.60
59975;DHT22;62136;-35.664;-63.766;2023-12-20T00:33:32;22.20;47.70
59975;DHT22;62136;-35.664;-63.766;2023-12-20T00:35:59;22.20;47.70
59975;DHT22;62136;-35.664;-63.766;2023-12-20T00:38:26;22.20;47.80
59975;DHT22;62136;-35.664;-63.766;2023-12-20T00:43:19;22.20;47.70
59975;DHT22;62136;-35.664;-63.766;2023-12-20T00:45:46;22.20;47.80
59975;DHT22;62136;-35.664;-63.766;2023-12-20T00:48:13;22.20;47.80
59975;DHT22;62136;-35.664;-63.766;2023-12-20T00:50:40;22.20;47.80
59975;DHT22;62136;-35.664;-63.766;2023-12-20T00:53:06;22.20;47.90
59975;DHT22;62136;-35.664;-63.766;2023-12-20T00:55:33;22.20;48.00
59975;DHT22;62136;-35.664;-63.766;2023-12-20T00:58:00;22.20;48.00
59975;DHT22;62136;-35.664;-63.766;2023-12-20T01:00:27;22.20;48.10
59975;DHT22;62136;-35.664;-63.766;2023-12-20T01:02:54;22.20;48.00
59975;DHT22;62136;-35.664;-63.766;2023-12-20T01:05:21;22.20;48.10
59975;DHT22;62136;-35.664;-63.766;2023-12-20T01:07:51;22.20;48.00
59975;DHT22;62136;-35.664;-63.766;2023-12-20T01:10:18;22.20;48.10
59975;DHT22;62136;-35.664;-63.766;2023-12-20T01:12:45;22.10;48.10
59975;DHT22;62136;-35.664;-63.766;2023-12-20T01:15:12;22.10;48.20
59975;DHT22;62136;-35.664;-63.766;2023-12-20T01:17:39;22.10;48.20
59975;DHT22;62136;-35.664;-63.766;2023-12-20T01:20:07;22.10;48.20
59975;DHT22;62136;-35.664;-63.766;2023-12-20T01:22:34;22.10;48.00
59975;DHT22;62136;-35.664;-63.766;2023-12-20T01:25:02;22.10;48.20
59975;DHT22;62136;-35.664;-63.766;2023-12-20T01:27:29;22.10;48.20
59975;DHT22;62136;-35.664;-63.766;2023-12-20T01:29:57;22.10;48.20
59975;DHT22;62136;-35.664;-63.766;2023-12-20T01:32:24;22.10;48.30
59975;DHT22;62136;-35.664;-63.766;2023-12-20T01:34:51;22.10;48.30
59975;DHT22;62136;-35.664;-63.766;2023-12-20T01:37:18;22.10;48.30
59975;DHT22;62136;-35.664;-63.766;2023-12-20T01:39:45;22.10;48.40
59975;DHT22;62136;-35.664;-63.766;2023-12-20T01:42:12;22.10;48.30
59975;DHT22;62136;-35.664;-63.766;2023-12-20T01:44:39;22.10;48.40
59975;DHT22;62136;-35.664;-63.766;2023-12-20T01:47:06;22.10;48.40
59975;DHT22;62136;-35.664;-63.766;2023-12-20T01:49:33;22.10;48.40
59975;DHT22;62136;-35.664;-63.766;2023-12-20T01:52:00;22.10;48.40
59975;DHT22;62136;-35.664;-63.766;2023-12-20T01:54:28;22.10;48.50
59975;DHT22;62136;-35.664;-63.766;2023-12-20T01:56:55;22.10;48.50
59975;DHT22;62136;-35.664;-63.766;2023-12-20T01:59:22;22.10;48.60
59975;DHT22;62136;-35.664;-63.766;2023-12-20T02:01:50;22.10;48.60
59975;DHT22;62136;-35.664;-63.766;2023-12-20T02:04:17;22.10;48.60
59975;DHT22;62136;-35.664;-63.766;2023-12-20T02:06:44;22.00;48.60
59975;DHT22;62136;-35.664;-63.766;2023-12-20T02:09:13;22.00;48.50
59975;DHT22;62136;-35.664;-63.766;2023-12-20T02:11:40;22.00;48.70
59975;DHT22;62136;-35.664;-63.766;2023-12-20T02:14:08;22.00;48.70
59975;DHT22;62136;-35.664;-63.766;2023-12-20T02:16:35;22.00;48.70
59975;DHT22;62136;-35.664;-63.766;2023-12-20T02:19:04;22.00;48.80
59975;DHT22;62136;-35.664;-63.766;2023-12-20T02:21:33;22.00;48.80
59975;DHT22;62136;-35.664;-63.766;2023-12-20T02:24:03;22.00;48.80
59975;DHT22;62136;-35.664;-63.766;2023-12-20T02:26:32;21.90;48.80
59975;DHT22;62136;-35.664;-63.766;2023-12-20T02:29:00;22.00;48.80
59975;DHT22;62136;-35.664;-63.766;2023-12-20T02:31:28;22.00;48.90
59975;DHT22;62136;-35.664;-63.766;2023-12-20T02:33:55;22.00;49.00
59975;DHT22;62136;-35.664;-63.766;2023-12-20T02:36:22;21.90;48.90
59975;DHT22;62136;-35.664;-63.766;2023-12-20T02:38:49;21.90;49.00
59975;DHT22;62136;-35.664;-63.766;2023-12-20T02:41:17;21.90;48.90
59975;DHT22;62136;-35.664;-63.766;2023-12-20T02:43:44;21.90;49.00
59975;DHT22;62136;-35.664;-63.766;2023-12-20T02:46:18;21.90;49.10
59975;DHT22;62136;-35.664;-63.766;2023-12-20T02:48:52;21.90;49.10
59975;DHT22;62136;-35.664;-63.766;2023-12-20T02:51:20;21.90;49.00
59975;DHT22;62136;-35.664;-63.766;2023-12-20T02:53:47;21.90;49.10
59975;DHT22;62136;-35.664;-63.766;2023-12-20T02:56:13;21.90;49.20
59975;DHT22;62136;-35.664;-63.766;2023-12-20T02:58:40;21.90;49.20
59975;DHT22;62136;-35.664;-63.766;2023-12-20T03:01:07;21.90;49.30
59975;DHT22;62136;-35.664;-63.766;2023-12-20T03:03:35;21.90;49.40
59975;DHT22;62136;-35.664;-63.766;2023-12-20T03:06:02;21.90;49.30
59975;DHT22;62136;-35.664;-63.766;2023-12-20T03:08:29;21.90;49.40
59975;DHT22;62136;-35.664;-63.766;2023-12-20T03:10:56;21.90;49.30
59975;DHT22;62136;-35.664;-63.766;2023-12-20T03:13:23;21.90;49.40
59975;DHT22;62136;-35.664;-63.766;2023-12-20T03:15:49;21.90;49.50
59975;DHT22;62136;-35.664;-63.766;2023-12-20T03:18:16;21.90;49.50
59975;DHT22;62136;-35.664;-63.766;2023-12-20T03:20:44;21.90;49.60
59975;DHT22;62136;-35.664;-63.766;2023-12-20T03:23:11;21.90;49.60
59975;DHT22;62136;-35.664;-63.766;2023-12-20T03:25:38;21.80;49.60
59975;DHT22;62136;-35.664;-63.766;2023-12-20T03:28:05;21.80;49.60
59975;DHT22;62136;-35.664;-63.766;2023-12-20T03:30:32;21.80;49.70
59975;DHT22;62136;-35.664;-63.766;2023-12-20T03:32:59;21.80;49.70
59975;DHT22;62136;-35.664;-63.766;2023-12-20T03:35:26;21.80;49.70
59975;DHT22;62136;-35.664;-63.766;2023-12-20T03:37:53;21.80;49.80
59975;DHT22;62136;-35.664;-63.766;2023-12-20T03:40:20;21.80;49.80
59975;DHT22;62136;-35.664;-63.766;2023-12-20T03:42:47;21.80;49.80
59975;DHT22;62136;-35.664;-63.766;2023-12-20T03:45:14;21.80;49.90
59975;DHT22;62136;-35.664;-63.766;2023-12-20T03:47:41;21.80;49.90
59975;DHT22;62136;-35.664;-63.766;2023-12-20T03:50:08;21.80;49.90
59975;DHT22;62136;-35.664;-63.766;2023-12-20T03:52:35;21.80;50.00
59975;DHT22;62136;-35.664;-63.766;2023-12-20T03:55:02;21.80;50.00
59975;DHT22;62136;-35.664;-63.766;2023-12-20T03:57:29;21.80;50.00
59975;DHT22;62136;-35.664;-63.766;2023-12-20T03:59:56;21.80;50.00
59975;DHT22;62136;-35.664;-63.766;2023-12-20T04:02:23;21.80;50.10
59975;DHT22;62136;-35.664;-63.766;2023-12-20T04:04:50;21.80;50.20
59975;DHT22;62136;-35.664;-63.766;2023-12-20T04:07:22;21.80;50.20
59975;DHT22;62136;-35.664;-63.766;2023-12-20T04:09:49;21.80;50.20
59975;DHT22;62136;-35.664;-63.766;2023-12-20T04:12:15;21.80;50.30
59975;DHT22;62136;-35.664;-63.766;2023-12-20T04:14:42;21.80;50.30
59975;DHT22;62136;-35.664;-63.766;2023-12-20T04:17:09;21.80;50.30
59975;DHT22;62136;-35.664;-63.766;2023-12-20T04:19:36;21.80;50.30
59975;DHT22;62136;-35.664;-63.766;2023-12-20T04:22:03;21.80;50.30
59975;DHT22;62136;-35.664;-63.766;2023-12-20T04:24:30;21.80;50.50
59975;DHT22;62136;-35.664;-63.766;2023-12-20T04:26:58;21.70;50.40
59975;DHT22;62136;-35.664;-63.766;2023-12-20T04:29:24;21.70;50.50
59975;DHT22;62136;-35.664;-63.766;2023-12-20T04:31:51;21.70;50.50
59975;DHT22;62136;-35.664;-63.766;2023-12-20T04:34:19;21.70;50.50
59975;DHT22;62136;-35.664;-63.766;2023-12-20T04:36:46;21.70;50.60
59975;DHT22;62136;-35.664;-63.766;2023-12-20T04:39:13;21.70;50.60
59975;DHT22;62136;-35.664;-63.766;2023-12-20T04:41:41;21.70;50.60
59975;DHT22;62136;-35.664;-63.766;2023-12-20T04:44:08;21.70;50.60
59975;DHT22;62136;-35.664;-63.766;2023-12-20T04:46:35;21.70;51.10
59975;DHT22;62136;-35.664;-63.766;2023-12-20T04:49:02;21.70;50.70
59975;DHT22;62136;-35.664;-63.766;2023-12-20T04:51:29;21.70;50.70
59975;DHT22;62136;-35.664;-63.766;2023-12-20T04:53:56;21.70;50.70
59975;DHT22;62136;-35.664;-63.766;2023-12-20T04:56:23;21.70;50.80
59975;DHT22;62136;-35.664;-63.766;2023-12-20T04:58:50;21.70;50.70
59975;DHT22;62136;-35.664;-63.766;2023-12-20T05:01:17;21.70;50.80
59975;DHT22;62136;-35.664;-63.766;2023-12-20T05:03:44;21.70;51.30
59975;DHT22;62136;-35.664;-63.766;2023-12-20T05:06:11;21.70;50.90
59975;DHT22;62136;-35.664;-63.766;2023-12-20T05:08:38;21.70;51.00
59975;DHT22;62136;-35.664;-63.766;2023-12-20T05:11:05;21.70;50.90
59975;DHT22;62136;-35.664;-63.766;2023-12-20T05:13:32;21.60;50.90
59975;DHT22;62136;-35.664;-63.766;2023-12-20T05:15:59;21.70;50.90
59975;DHT22;62136;-35.664;-63.766;2023-12-20T05:18:26;21.70;51.00
59975;DHT22;62136;-35.664;-63.766;2023-12-20T05:20:53;21.70;51.00
59975;DHT22;62136;-35.664;-63.766;2023-12-20T05:23:20;21.70;51.10
59975;DHT22;62136;-35.664;-63.766;2023-12-20T05:25:47;21.70;51.50
59975;DHT22;62136;-35.664;-63.766;2023-12-20T05:28:15;21.60;51.10
59975;DHT22;62136;-35.664;-63.766;2023-12-20T05:30:43;21.60;51.10
59975;DHT22;62136;-35.664;-63.766;2023-12-20T05:33:10;21.70;51.20
59975;DHT22;62136;-35.664;-63.766;2023-12-20T05:35:37;21.60;51.20
59975;DHT22;62136;-35.664;-63.766;2023-12-20T05:38:04;21.60;51.20
59975;DHT22;62136;-35.664;-63.766;2023-12-20T05:40:31;21.60;51.20
59975;DHT22;62136;-35.664;-63.766;2023-12-20T05:42:58;21.60;51.20
59975;DHT22;62136;-35.664;-63.766;2023-12-20T05:45:25;21.60;51.30
59975;DHT22;62136;-35.664;-63.766;2023-12-20T05:47:52;21.60;51.30
59975;DHT22;62136;-35.664;-63.766;2023-12-20T05:50:19;21.60;51.30
59975;DHT22;62136;-35.664;-63.766;2023-12-20T05:52:48;21.60;51.80
59975;DHT22;62136;-35.664;-63.766;2023-12-20T05:55:15;21.60;51.40
59975;DHT22;62136;-35.664;-63.766;2023-12-20T05:57:42;21.60;51.50
59975;DHT22;62136;-35.664;-63.766;2023-12-20T06:00:10;21.60;51.40
59975;DHT22;62136;-35.664;-63.766;2023-12-20T06:02:37;21.60;51.60
59975;DHT22;62136;-35.664;-63.766;2023-12-20T06:05:07;21.60;51.60
59975;DHT22;62136;-35.664;-63.766;2023-12-20T06:07:34;21.60;52.10
59975;DHT22;62136;-35.664;-63.766;2023-12-20T06:10:01;21.60;51.80
59975;DHT22;62136;-35.664;-63.766;2023-12-20T06:12:28;21.60;51.80
59975;DHT22;62136;-35.664;-63.766;2023-12-20T06:14:55;21.60;51.80
59975;DHT22;62136;-35.664;-63.766;2023-12-20T06:17:23;21.60;51.90
59975;DHT22;62136;-35.664;-63.766;2023-12-20T06:19:50;21.50;52.00
59975;DHT22;62136;-35.664;-63.766;2023-12-20T06:22:17;21.60;52.00
59975;DHT22;62136;-35.664;-63.766;2023-12-20T06:24:45;21.50;52.10
59975;DHT22;62136;-35.664;-63.766;2023-12-20T06:27:12;21.50;52.10
59975;DHT22;62136;-35.664;-63.766;2023-12-20T06:29:39;21.50;52.10
59975;DHT22;62136;-35.664;-63.766;2023-12-20T06:32:07;21.50;52.30
59975;DHT22;62136;-35.664;-63.766;2023-12-20T06:34:34;21.50;52.30
59975;DHT22;62136;-35.664;-63.766;2023-12-20T06:37:01;21.50;52.40
59975;DHT22;62136;-35.664;-63.766;2023-12-20T06:39:28;21.50;52.40
59975;DHT22;62136;-35.664;-63.766;2023-12-20T06:41:57;21.50;52.30
59975;DHT22;62136;-35.664;-63.766;2023-12-20T06:44:23;21.50;52.50
59975;DHT22;62136;-35.664;-63.766;2023-12-20T06:46:50;21.50;52.50
59975;DHT22;62136;-35.664;-63.766;2023-12-20T06:49:17;21.50;52.60
59975;DHT22;62136;-35.664;-63.766;2023-12-20T06:51:44;21.50;52.60
59975;DHT22;62136;-35.664;-63.766;2023-12-20T06:54:11;21.50;52.70
59975;DHT22;62136;-35.664;-63.766;2023-12-20T06:56:38;21.40;52.60
59975;DHT22;62136;-35.664;-63.766;2023-12-20T06:59:08;21.50;52.80
59975;DHT22;62136;-35.664;-63.766;2023-12-20T07:01:35;21.40;52.80
59975;DHT22;62136;-35.664;-63.766;2023-12-20T07:04:02;21.40;53.30
59975;DHT22;62136;-35.664;-63.766;2023-12-20T07:06:29;21.40;52.90
59975;DHT22;62136;-35.664;-63.766;2023-12-20T07:08:56;21.40;52.90
59975;DHT22;62136;-35.664;-63.766;2023-12-20T07:11:23;21.40;52.90
59975;DHT22;62136;-35.664;-63.766;2023-12-20T07:13:50;21.40;53.00
59975;DHT22;62136;-35.664;-63.766;2023-12-20T07:16:17;21.50;53.10
59975;DHT22;62136;-35.664;-63.766;2023-12-20T07:18:44;21.40;53.10
59975;DHT22;62136;-35.664;-63.766;2023-12-20T07:21:11;21.40;53.10
59975;DHT22;62136;-35.664;-63.766;2023-12-20T07:23:38;21.40;53.20
59975;DHT22;62136;-35.664;-63.766;2023-12-20T07:26:05;21.40;53.30
59975;DHT22;62136;-35.664;-63.766;2023-12-20T07:28:32;21.40;53.20
59975;DHT22;62136;-35.664;-63.766;2023-12-20T07:30:59;21.40;53.40
59975;DHT22;62136;-35.664;-63.766;2023-12-20T07:33:26;21.40;53.40
59975;DHT22;62136;-35.664;-63.766;2023-12-20T07:35:53;21.40;53.40
59975;DHT22;62136;-35.664;-63.766;2023-12-20T07:38:20;21.40;53.40
59975;DHT22;62136;-35.664;-63.766;2023-12-20T07:40:47;21.40;53.60
59975;DHT22;62136;-35.664;-63.766;2023-12-20T07:43:14;21.40;53.60
59975;DHT22;62136;-35.664;-63.766;2023-12-20T07:45:41;21.40;53.50
59975;DHT22;62136;-35.664;-63.766;2023-12-20T07:48:08;21.40;53.60
59975;DHT22;62136;-35.664;-63.766;2023-12-20T07:50:35;21.40;53.70
59975;DHT22;62136;-35.664;-63.766;2023-12-20T07:53:02;21.30;53.60
59975;DHT22;62136;-35.664;-63.766;2023-12-20T07:55:29;21.30;53.70
59975;DHT22;62136;-35.664;-63.766;2023-12-20T07:57:58;21.30;53.80
59975;DHT22;62136;-35.664;-63.766;2023-12-20T08:00:25;21.30;53.80
59975;DHT22;62136;-35.664;-63.766;2023-12-20T08:02:52;21.30;53.90
59975;DHT22;62136;-35.664;-63.766;2023-12-20T08:05:19;21.30;53.90
59975;DHT22;62136;-35.664;-63.766;2023-12-20T08:07:45;21.30;53.90
59975;DHT22;62136;-35.664;-63.766;2023-12-20T08:10:12;21.30;54.00
59975;DHT22;62136;-35.664;-63.766;2023-12-20T08:12:39;21.30;54.00
59975;DHT22;62136;-35.664;-63.766;2023-12-20T08:15:07;21.30;54.10
59975;DHT22;62136;-35.664;-63.766;2023-12-20T08:17:34;21.30;54.10
59975;DHT22;62136;-35.664;-63.766;2023-12-20T08:20:01;21.30;54.20
59975;DHT22;62136;-35.664;-63.766;2023-12-20T08:22:28;21.30;54.20
59975;DHT22;62136;-35.664;-63.766;2023-12-20T08:24:55;21.30;54.20
59975;DHT22;62136;-35.664;-63.766;2023-12-20T08:27:22;21.30;54.30
59975;DHT22;62136;-35.664;-63.766;2023-12-20T08:29:49;21.30;54.40
59975;DHT22;62136;-35.664;-63.766;2023-12-20T08:32:17;21.30;54.40
59975;DHT22;62136;-35.664;-63.766;2023-12-20T08:34:43;21.30;54.20
59975;DHT22;62136;-35.664;-63.766;2023-12-20T08:37:10;21.30;54.50
59975;DHT22;62136;-35.664;-63.766;2023-12-20T08:39:37;21.30;54.60
59975;DHT22;62136;-35.664;-63.766;2023-12-20T08:42:04;21.30;54.60
59975;DHT22;62136;-35.664;-63.766;2023-12-20T08:44:31;21.20;54.60
59975;DHT22;62136;-35.664;-63.766;2023-12-20T08:46:58;21.20;54.70
59975;DHT22;62136;-35.664;-63.766;2023-12-20T08:49:25;21.30;54.70
59975;DHT22;62136;-35.664;-63.766;2023-12-20T08:51:52;21.30;54.70
59975;DHT22;62136;-35.664;-63.766;2023-12-20T08:54:19;21.20;55.20
59975;DHT22;62136;-35.664;-63.766;2023-12-20T08:56:46;21.30;54.80
59975;DHT22;62136;-35.664;-63.766;2023-12-20T08:59:13;21.30;54.90
59975;DHT22;62136;-35.664;-63.766;2023-12-20T09:01:40;21.30;54.90
59975;DHT22;62136;-35.664;-63.766;2023-12-20T09:04:07;21.30;55.00
59975;DHT22;62136;-35.664;-63.766;2023-12-20T09:06:34;21.20;54.90
59975;DHT22;62136;-35.664;-63.766;2023-12-20T09:09:01;21.20;55.00
59975;DHT22;62136;-35.664;-63.766;2023-12-20T09:11:28;21.20;55.00
59975;DHT22;62136;-35.664;-63.766;2023-12-20T09:13:55;21.20;54.90
59975;DHT22;62136;-35.664;-63.766;2023-12-20T09:16:22;21.20;55.00
59975;DHT22;62136;-35.664;-63.766;2023-12-20T09:18:49;21.20;55.10
59975;DHT22;62136;-35.664;-63.766;2023-12-20T09:21:18;21.20;55.20
59975;DHT22;62136;-35.664;-63.766;2023-12-20T09:23:45;21.20;55.20
59975;DHT22;62136;-35.664;-63.766;2023-12-20T09:26:12;21.20;55.20
59975;DHT22;62136;-35.664;-63.766;2023-12-20T09:28:39;21.20;55.20
59975;DHT22;62136;-35.664;-63.766;2023-12-20T09:31:06;21.20;55.30
59975;DHT22;62136;-35.664;-63.766;2023-12-20T09:33:34;21.20;55.20
59975;DHT22;62136;-35.664;-63.766;2023-12-20T09:36:01;21.20;55.40
59975;DHT22;62136;-35.664;-63.766;2023-12-20T09:38:28;21.20;55.40
59975;DHT22;62136;-35.664;-63.766;2023-12-20T09:40:55;21.20;55.40
59975;DHT22;62136;-35.664;-63.766;2023-12-20T09:43:24;21.20;55.50
59975;DHT22;62136;-35.664;-63.766;2023-12-20T09:45:53;21.20;55.60
59975;DHT22;62136;-35.664;-63.766;2023-12-20T09:48:21;21.20;55.60
59975;DHT22;62136;-35.664;-63.766;2023-12-20T09:50:48;21.20;55.60
59975;DHT22;62136;-35.664;-63.766;2023-12-20T09:53:16;21.20;55.70
59975;DHT22;62136;-35.664;-63.766;2023-12-20T09:55:44;21.10;55.80
59975;DHT22;62136;-35.664;-63.766;2023-12-20T09:58:11;21.20;55.80
59975;DHT22;62136;-35.664;-63.766;2023-12-20T10:00:38;21.20;55.80
59975;DHT22;62136;-35.664;-63.766;2023-12-20T10:03:06;21.10;55.80
59975;DHT22;62136;-35.664;-63.766;2023-12-20T10:05:34;21.10;55.80
59975;DHT22;62136;-35.664;-63.766;2023-12-20T10:08:02;21.10;55.90
59975;DHT22;62136;-35.664;-63.766;2023-12-20T10:10:29;21.10;56.00
59975;DHT22;62136;-35.664;-63.766;2023-12-20T10:13:10;21.10;56.00
59975;DHT22;62136;-35.664;-63.766;2023-12-20T10:15:37;21.10;56.00
59975;DHT22;62136;-35.664;-63.766;2023-12-20T10:18:05;21.10;56.10
59975;DHT22;62136;-35.664;-63.766;2023-12-20T10:20:33;21.10;56.20
59975;DHT22;62136;-35.664;-63.766;2023-12-20T10:23:00;21.10;56.20
59975;DHT22;62136;-35.664;-63.766;2023-12-20T10:25:27;21.10;56.30
59975;DHT22;62136;-35.664;-63.766;2023-12-20T10:28:17;21.10;56.30
59975;DHT22;62136;-35.664;-63.766;2023-12-20T10:30:45;21.10;56.40
59975;DHT22;62136;-35.664;-63.766;2023-12-20T10:33:12;21.10;56.40
59975;DHT22;62136;-35.664;-63.766;2023-12-20T10:35:40;21.10;56.40
59975;DHT22;62136;-35.664;-63.766;2023-12-20T10:38:07;21.10;56.60
59975;DHT22;62136;-35.664;-63.766;2023-12-20T10:40:35;21.10;56.80
59975;DHT22;62136;-35.664;-63.766;2023-12-20T10:43:03;21.00;56.90
59975;DHT22;62136;-35.664;-63.766;2023-12-20T10:45:31;21.00;57.20
59975;DHT22;62136;-35.664;-63.766;2023-12-20T10:48:02;21.00;57.40
59975;DHT22;62136;-35.664;-63.766;2023-12-20T10:50:30;21.00;57.70
59975;DHT22;62136;-35.664;-63.766;2023-12-20T10:52:59;20.90;57.80
59975;DHT22;62136;-35.664;-63.766;2023-12-20T10:55:26;20.80;58.20
59975;DHT22;62136;-35.664;-63.766;2023-12-20T10:58:07;20.80;57.80
59975;DHT22;62136;-35.664;-63.766;2023-12-20T11:00:40;20.80;58.60
59975;DHT22;62136;-35.664;-63.766;2023-12-20T11:03:12;20.70;58.90
59975;DHT22;62136;-35.664;-63.766;2023-12-20T11:14:07;20.60;60.10
59975;DHT22;62136;-35.664;-63.766;2023-12-20T11:16:38;20.50;60.10
59975;DHT22;62136;-35.664;-63.766;2023-12-20T11:19:06;20.50;60.00
59975;DHT22;62136;-35.664;-63.766;2023-12-20T11:21:33;20.60;60.00
59975;DHT22;62136;-35.664;-63.766;2023-12-20T11:24:01;20.60;60.70
59975;DHT22;62136;-35.664;-63.766;2023-12-20T11:26:29;20.60;60.60
59975;DHT22;62136;-35.664;-63.766;2023-12-20T11:29:37;20.50;60.80
59975;DHT22;62136;-35.664;-63.766;2023-12-20T11:34:55;20.50;60.80
59975;DHT22;62136;-35.664;-63.766;2023-12-20T11:37:29;20.40;61.00
59975;DHT22;62136;-35.664;-63.766;2023-12-20T11:40:02;20.40;61.30
59975;DHT22;62136;-35.664;-63.766;2023-12-20T11:42:44;20.30;61.60
59975;DHT22;62136;-35.664;-63.766;2023-12-20T11:45:19;20.30;61.70
59975;DHT22;62136;-35.664;-63.766;2023-12-20T11:48:07;20.30;61.50
59975;DHT22;62136;-35.664;-63.766;2023-12-20T11:50:34;20.20;62.10
59975;DHT22;62136;-35.664;-63.766;2023-12-20T11:53:03;20.20;62.00
59975;DHT22;62136;-35.664;-63.766;2023-12-20T11:55:30;20.20;62.00
59975;DHT22;62136;-35.664;-63.766;2023-12-20T11:57:57;20.20;62.40
59975;DHT22;62136;-35.664;-63.766;2023-12-20T12:00:25;20.10;62.10
59975;DHT22;62136;-35.664;-63.766;2023-12-20T12:02:59;20.10;62.70
59975;DHT22;62136;-35.664;-63.766;2023-12-20T12:05:28;20.20;62.60
59975;DHT22;62136;-35.664;-63.766;2023-12-20T12:07:55;20.20;63.70
59975;DHT22;62136;-35.664;-63.766;2023-12-20T12:10:23;20.20;62.70
59975;DHT22;62136;-35.664;-63.766;2023-12-20T12:12:50;20.00;63.00
59975;DHT22;62136;-35.664;-63.766;2023-12-20T12:15:17;20.00;64.00
59975;DHT22;62136;-35.664;-63.766;2023-12-20T12:17:52;20.10;62.70
59975;DHT22;62136;-35.664;-63.766;2023-12-20T12:20:20;20.10;63.20
59975;DHT22;62136;-35.664;-63.766;2023-12-20T12:22:59;20.10;63.00
59975;DHT22;62136;-35.664;-63.766;2023-12-20T12:25:26;20.10;63.20
59975;DHT22;62136;-35.664;-63.766;2023-12-20T12:27:53;20.20;62.70
59975;DHT22;62136;-35.664;-63.766;2023-12-20T12:30:21;20.20;62.70
59975;DHT22;62136;-35.664;-63.766;2023-12-20T12:32:48;20.30;62.50
59975;DHT22;62136;-35.664;-63.766;2023-12-20T12:35:15;20.30;62.30
59975;DHT22;62136;-35.664;-63.766;2023-12-20T12:37:42;20.40;62.20
59975;DHT22;62136;-35.664;-63.766;2023-12-20T12:40:14;20.40;62.20
59975;DHT22;62136;-35.664;-63.766;2023-12-20T12:42:43;20.40;62.10
59975;DHT22;62136;-35.664;-63.766;2023-12-20T12:45:11;20.40;62.10
59975;DHT22;62136;-35.664;-63.766;2023-12-20T12:47:38;20.40;61.90
59975;DHT22;62136;-35.664;-63.766;2023-12-20T12:50:06;20.50;61.30
59975;DHT22;62136;-35.664;-63.766;2023-12-20T12:52:33;20.50;62.00
59975;DHT22;62136;-35.664;-63.766;2023-12-20T12:55:01;20.50;61.50
59975;DHT22;62136;-35.664;-63.766;2023-12-20T12:57:31;20.50;61.50
59975;DHT22;62136;-35.664;-63.766;2023-12-20T12:59:59;20.50;61.80
59975;DHT22;62136;-35.664;-63.766;2023-12-20T13:02:26;20.50;61.90
59975;DHT22;62136;-35.664;-63.766;2023-12-20T13:04:53;20.60;61.50
59975;DHT22;62136;-35.664;-63.766;2023-12-20T13:07:20;21.00;61.10
59975;DHT22;62136;-35.664;-63.766;2023-12-20T13:09:47;21.40;59.90
59975;DHT22;62136;-35.664;-63.766;2023-12-20T13:12:14;22.00;58.80
59975;DHT22;62136;-35.664;-63.766;2023-12-20T13:14:41;22.50;57.50
59975;DHT22;62136;-35.664;-63.766;2023-12-20T13:17:09;23.10;56.20
59975;DHT22;62136;-35.664;-63.766;2023-12-20T13:19:37;23.60;55.00
59975;DHT22;62136;-35.664;-63.766;2023-12-20T13:22:04;23.90;54.10
59975;DHT22;62136;-35.664;-63.766;2023-12-20T13:24:35;23.90;53.90
59975;DHT22;62136;-35.664;-63.766;2023-12-20T13:27:02;23.90;54.10
59975;DHT22;62136;-35.664;-63.766;2023-12-20T13:29:29;23.70;54.30
59975;DHT22;62136;-35.664;-63.766;2023-12-20T13:31:56;23.50;54.70
59975;DHT22;62136;-35.664;-63.766;2023-12-20T13:34:23;23.30;55.00
59975;DHT22;62136;-35.664;-63.766;2023-12-20T13:36:51;23.30;55.80
59975;DHT22;62136;-35.664;-63.766;2023-12-20T13:39:18;23.40;55.80
59975;DHT22;62136;-35.664;-63.766;2023-12-20T13:41:45;23.80;55.30
59975;DHT22;62136;-35.664;-63.766;2023-12-20T13:44:12;24.10;54.40
59975;DHT22;62136;-35.664;-63.766;2023-12-20T13:46:40;24.10;54.30
59975;DHT22;62136;-35.664;-63.766;2023-12-20T13:49:07;24.10;54.50
59975;DHT22;62136;-35.664;-63.766;2023-12-20T13:51:35;23.90;54.70
59975;DHT22;62136;-35.664;-63.766;2023-12-20T13:54:08;23.80;55.00
59975;DHT22;62136;-35.664;-63.766;2023-12-20T13:56:37;23.60;55.50
59975;DHT22;62136;-35.664;-63.766;2023-12-20T13:59:05;23.50;56.30
59975;DHT22;62136;-35.664;-63.766;2023-12-20T14:01:35;23.70;56.10
59975;DHT22;62136;-35.664;-63.766;2023-12-20T14:04:02;24.00;55.50
59975;DHT22;62136;-35.664;-63.766;2023-12-20T14:06:30;24.30;54.70
59975;DHT22;62136;-35.664;-63.766;2023-12-20T14:08:57;24.30;54.70
59975;DHT22;62136;-35.664;-63.766;2023-12-20T14:11:27;24.30;54.80
59975;DHT22;62136;-35.664;-63.766;2023-12-20T14:13:54;24.10;55.10
59975;DHT22;62136;-35.664;-63.766;2023-12-20T14:16:25;24.00;55.50
59975;DHT22;62136;-35.664;-63.766;2023-12-20T14:18:52;23.80;55.80
59975;DHT22;62136;-35.664;-63.766;2023-12-20T14:21:20;23.60;56.80
59975;DHT22;62136;-35.664;-63.766;2023-12-20T14:23:47;23.70;57.10
59975;DHT22;62136;-35.664;-63.766;2023-12-20T14:26:14;23.90;56.90
59975;DHT22;62136;-35.664;-63.766;2023-12-20T14:28:42;24.30;56.30
59975;DHT22;62136;-35.664;-63.766;2023-12-20T14:31:10;24.40;55.70
59975;DHT22;62136;-35.664;-63.766;2023-12-20T14:33:37;24.30;55.80
59975;DHT22;62136;-35.664;-63.766;2023-12-20T14:36:05;24.20;55.90
59975;DHT22;62136;-35.664;-63.766;2023-12-20T14:38:34;24.10;56.20
59975;DHT22;62136;-35.664;-63.766;2023-12-20T14:41:01;23.90;56.50
59975;DHT22;62136;-35.664;-63.766;2023-12-20T14:43:30;23.80;57.00
59975;DHT22;62136;-35.664;-63.766;2023-12-20T14:45:57;23.60;57.40
59975;DHT22;62136;-35.664;-63.766;2023-12-20T14:48:24;23.60;58.10
59975;DHT22;62136;-35.664;-63.766;2023-12-20T14:50:54;23.80;57.70
59975;DHT22;62136;-35.664;-63.766;2023-12-20T14:53:21;24.20;57.20
59975;DHT22;62136;-35.664;-63.766;2023-12-20T14:55:48;24.30;56.50
59975;DHT22;62136;-35.664;-63.766;2023-12-20T14:58:17;24.30;56.50
59975;DHT22;62136;-35.664;-63.766;2023-12-20T15:00:44;24.20;56.60
59975;DHT22;62136;-35.664;-63.766;2023-12-20T15:03:11;24.10;56.90
59975;DHT22;62136;-35.664;-63.766;2023-12-20T15:05:38;24.00;56.90